createdAt,value
2019-03-21T00:00:03.429Z,8.00
2019-03-21T00:01:03.439Z,8.90
2019-03-21T00:02:03.457Z,9.60
2019-03-21T00:03:03.381Z,8.50
2019-03-21T00:04:03.367Z,8.20
2019-03-21T00:05:03.360Z,9.80
2019-03-21T00:06:03.400Z,9.90
2019-03-21T00:07:03.343Z,7.70
2019-03-21T00:08:03.320Z,8.50
2019-03-21T00:09:03.309Z,8.00
2019-03-21T00:10:03.304Z,10.90
2019-03-21T00:11:03.294Z,9.00
2019-03-21T00:12:03.316Z,8.60
2019-03-21T00:13:03.274Z,9.30
2019-03-21T00:14:07.167Z,8.50
2019-03-21T00:15:03.252Z,10.40
2019-03-21T00:16:03.233Z,8.40
2019-03-21T00:17:03.267Z,7.60
2019-03-21T00:18:03.216Z,8.40
2019-03-21T00:19:03.202Z,10.20
2019-03-21T00:20:03.199Z,10.10
2019-03-21T00:21:03.188Z,8.40
2019-03-21T00:22:03.214Z,9.50
2019-03-21T00:23:03.163Z,7.80
2019-03-21T00:24:03.154Z,7.60
2019-03-21T00:25:03.140Z,9.70
2019-03-21T00:26:03.181Z,9.40
2019-03-21T00:27:03.117Z,8.80
2019-03-21T00:28:03.143Z,7.00
2019-03-21T00:29:03.096Z,8.60
2019-03-21T00:30:03.091Z,8.70
2019-03-21T00:31:03.074Z,8.10
2019-03-21T00:32:03.061Z,10.00
2019-03-21T00:33:03.053Z,7.80
2019-03-21T00:34:03.090Z,10.80
2019-03-21T00:35:03.077Z,10.90
2019-03-21T00:36:03.025Z,9.30
2019-03-21T00:37:03.007Z,7.50
2019-03-21T00:38:02.998Z,9.00
2019-03-21T00:39:02.987Z,7.80
2019-03-21T00:40:02.977Z,7.80
2019-03-21T00:41:03.012Z,7.70
2019-03-21T00:42:02.972Z,8.50
2019-03-21T00:43:02.943Z,8.20
2019-03-21T00:44:02.932Z,9.20
2019-03-21T00:45:02.926Z,10.70
2019-03-21T00:46:02.909Z,9.70
2019-03-21T00:47:02.940Z,7.60
2019-03-21T00:48:02.888Z,7.30
2019-03-21T00:49:02.879Z,10.70
2019-03-21T00:50:02.867Z,8.90
2019-03-21T00:51:02.883Z,8.60
2019-03-21T00:52:02.851Z,9.50
2019-03-21T00:53:02.880Z,8.30
2019-03-21T00:54:02.824Z,8.60
2019-03-21T00:55:02.817Z,9.30
2019-03-21T00:56:02.802Z,8.10
2019-03-21T00:57:02.802Z,8.20
2019-03-21T00:58:02.829Z,7.40
2019-03-21T00:59:02.777Z,8.60
2019-03-21T01:00:02.770Z,7.60
2019-03-21T01:01:02.748Z,8.70
2019-03-21T01:02:02.790Z,7.70
2019-03-21T01:03:03.774Z,8.40
2019-03-21T01:04:02.715Z,7.40
2019-03-21T01:05:02.717Z,8.60
2019-03-21T01:06:02.694Z,8.30
2019-03-21T01:07:02.728Z,8.90
2019-03-21T01:08:02.719Z,7.90
2019-03-21T01:09:02.661Z,7.80
2019-03-21T01:10:02.680Z,8.90
2019-03-21T01:11:02.682Z,7.10
2019-03-21T01:12:02.631Z,10.20
2019-03-21T01:13:02.622Z,9.00
2019-03-21T01:14:02.645Z,9.10
2019-03-21T01:15:02.602Z,7.90
2019-03-21T01:16:02.586Z,6.70
2019-03-21T01:17:02.579Z,7.30
2019-03-21T01:18:02.610Z,9.70
2019-03-21T01:19:02.555Z,8.30
2019-03-21T01:20:02.545Z,10.20
2019-03-21T01:21:02.569Z,9.50
2019-03-21T01:22:02.526Z,8.90
2019-03-21T01:23:02.515Z,9.30
2019-03-21T01:24:02.499Z,9.00
2019-03-21T01:25:02.490Z,7.90
2019-03-21T01:26:02.523Z,8.50
2019-03-21T01:27:02.467Z,7.10
2019-03-21T01:28:02.498Z,8.50
2019-03-21T01:29:02.455Z,9.00
2019-03-21T01:30:02.437Z,9.30
2019-03-21T01:31:02.472Z,6.90
2019-03-21T01:32:02.415Z,6.70
2019-03-21T01:33:02.402Z,7.80
2019-03-21T01:34:02.431Z,6.80
2019-03-21T01:35:02.384Z,9.30
2019-03-21T01:36:02.412Z,9.70
2019-03-21T01:37:02.361Z,10.80
2019-03-21T01:38:02.350Z,8.10
2019-03-21T01:39:02.381Z,8.40
2019-03-21T01:40:02.327Z,9.30
2019-03-21T01:41:02.323Z,11.30
2019-03-21T01:42:02.305Z,7.20
2019-03-21T01:43:02.295Z,10.10
2019-03-21T01:44:02.284Z,8.80
2019-03-21T01:45:02.320Z,7.80
2019-03-21T01:46:02.261Z,8.90
2019-03-21T01:47:02.267Z,8.50
2019-03-21T01:48:02.281Z,8.80
2019-03-21T01:49:02.236Z,8.80
2019-03-21T01:50:02.219Z,7.90
2019-03-21T01:51:02.213Z,10.40
2019-03-21T01:52:02.198Z,8.00
2019-03-21T01:53:02.197Z,7.30
2019-03-21T01:54:02.216Z,9.90
2019-03-21T01:55:02.166Z,8.70
2019-03-21T01:56:02.200Z,9.90
2019-03-21T01:57:02.148Z,8.00
2019-03-21T01:58:02.134Z,8.60
2019-03-21T01:59:02.127Z,11.30
2019-03-21T02:00:02.115Z,9.10
2019-03-21T02:01:02.148Z,8.20
2019-03-21T02:02:02.134Z,10.40
2019-03-21T02:03:02.115Z,9.40
2019-03-21T02:04:02.073Z,9.80
2019-03-21T02:05:02.059Z,8.10
2019-03-21T02:06:02.062Z,9.60
2019-03-21T02:07:02.090Z,10.80
2019-03-21T02:08:02.030Z,9.10
2019-03-21T02:09:02.018Z,7.30
2019-03-21T02:10:02.047Z,9.80
2019-03-21T02:11:02.034Z,7.60
2019-03-21T02:12:01.982Z,6.80
2019-03-21T02:13:01.971Z,10.30
2019-03-21T02:14:01.961Z,8.20
2019-03-21T02:15:01.954Z,8.60
2019-03-21T02:16:01.984Z,10.50
2019-03-21T02:17:01.934Z,8.10
2019-03-21T02:18:01.919Z,7.50
2019-03-21T02:19:01.950Z,10.60
2019-03-21T02:20:01.949Z,11.10
2019-03-21T02:21:01.908Z,8.70
2019-03-21T02:22:01.920Z,8.40
2019-03-21T02:23:01.905Z,10.50
2019-03-21T02:24:01.853Z,8.60
2019-03-21T02:25:01.841Z,8.30
2019-03-21T02:26:01.835Z,8.00
2019-03-21T02:27:01.821Z,8.70
2019-03-21T02:28:01.814Z,8.80
2019-03-21T02:29:01.841Z,10.30
2019-03-21T02:30:01.856Z,9.70
2019-03-21T02:31:01.794Z,8.90
2019-03-21T02:32:01.792Z,7.40
2019-03-21T02:33:01.757Z,10.80
2019-03-21T02:34:01.754Z,8.30
2019-03-21T02:35:01.774Z,8.60
2019-03-21T02:36:01.745Z,7.80
2019-03-21T02:37:01.759Z,8.90
2019-03-21T02:38:01.706Z,7.70
2019-03-21T02:39:01.694Z,6.80
2019-03-21T02:40:01.691Z,9.10
2019-03-21T02:41:01.719Z,9.50
2019-03-21T02:42:01.709Z,8.10
2019-03-21T02:43:01.679Z,9.30
2019-03-21T02:44:01.642Z,7.80
2019-03-21T02:45:08.402Z,7.90
2019-03-21T02:46:02.615Z,8.30
2019-03-21T02:47:01.604Z,7.70
2019-03-21T02:48:01.634Z,10.10
2019-03-21T02:49:01.586Z,10.10
2019-03-21T02:50:01.628Z,9.70
2019-03-21T02:51:01.565Z,10.80
2019-03-21T02:52:01.556Z,9.40
2019-03-21T02:53:01.548Z,9.40
2019-03-21T02:54:01.578Z,9.90
2019-03-21T02:55:01.569Z,9.20
2019-03-21T02:56:01.517Z,9.40
2019-03-21T02:57:01.497Z,8.90
2019-03-21T02:58:01.491Z,9.50
2019-03-21T02:59:01.478Z,9.90
2019-03-21T03:00:01.512Z,7.60
2019-03-21T03:01:01.508Z,8.10
2019-03-21T03:02:01.448Z,8.60
2019-03-21T03:03:01.439Z,12.40
2019-03-21T03:04:01.423Z,7.40
2019-03-21T03:05:01.412Z,7.00
2019-03-21T03:06:01.456Z,8.50
2019-03-21T03:07:01.437Z,9.30
2019-03-21T03:08:01.379Z,8.60
2019-03-21T03:09:01.425Z,8.80
2019-03-21T03:10:01.411Z,10.10
2019-03-21T03:11:01.362Z,9.80
2019-03-21T03:12:01.340Z,8.70
2019-03-21T03:13:01.324Z,8.00
2019-03-21T03:14:04.344Z,9.40
2019-03-21T03:15:01.307Z,10.00
2019-03-21T03:16:01.346Z,8.10
2019-03-21T03:17:01.319Z,8.90
2019-03-21T03:18:01.271Z,8.00
2019-03-21T03:19:01.259Z,8.20
2019-03-21T03:20:01.248Z,9.90
2019-03-21T03:21:01.242Z,9.80
2019-03-21T03:22:01.280Z,12.10
2019-03-21T03:23:01.216Z,10.70
2019-03-21T03:24:01.205Z,10.00
2019-03-21T03:25:01.196Z,10.50
2019-03-21T03:26:01.189Z,10.10
2019-03-21T03:27:01.217Z,10.70
2019-03-21T03:28:01.208Z,8.60
2019-03-21T03:29:01.151Z,9.40
2019-03-21T03:30:01.165Z,9.70
2019-03-21T03:31:01.145Z,9.20
2019-03-21T03:32:01.125Z,8.50
2019-03-21T03:33:01.217Z,10.50
2019-03-21T03:34:01.096Z,9.50
2019-03-21T03:35:01.301Z,10.80
2019-03-21T03:36:01.075Z,9.50
2019-03-21T03:37:01.070Z,9.30
2019-03-21T03:38:01.109Z,9.50
2019-03-21T03:39:01.042Z,12.10
2019-03-21T03:40:01.047Z,9.20
2019-03-21T03:41:01.021Z,9.10
2019-03-21T03:42:01.008Z,10.50
2019-03-21T03:43:01.060Z,11.10
2019-03-21T03:44:00.987Z,12.50
2019-03-21T03:45:00.980Z,9.60
2019-03-21T03:46:00.974Z,10.60
2019-03-21T03:47:00.958Z,10.40
2019-03-21T03:48:00.989Z,11.50
2019-03-21T03:49:00.934Z,8.90
2019-03-21T03:50:00.963Z,10.00
2019-03-21T03:51:00.909Z,10.10
2019-03-21T03:52:00.912Z,12.00
2019-03-21T03:53:00.889Z,10.30
2019-03-21T03:54:00.883Z,10.20
2019-03-21T03:55:00.870Z,10.70
2019-03-21T03:56:00.908Z,11.70
2019-03-21T03:57:00.867Z,10.20
2019-03-21T03:58:00.841Z,12.10
2019-03-21T03:59:00.830Z,12.10
2019-03-21T04:00:00.813Z,11.60
2019-03-21T04:01:00.802Z,11.20
2019-03-21T04:02:00.851Z,9.70
2019-03-21T04:03:00.824Z,10.50
2019-03-21T04:04:00.777Z,10.30
2019-03-21T04:05:00.758Z,12.00
2019-03-21T04:06:00.761Z,10.80
2019-03-21T04:07:00.740Z,10.60
2019-03-21T04:08:00.744Z,11.20
2019-03-21T04:09:00.764Z,12.50
2019-03-21T04:10:00.704Z,12.00
2019-03-21T04:11:00.699Z,10.20
2019-03-21T04:12:00.686Z,12.20
2019-03-21T04:13:00.675Z,13.40
2019-03-21T04:14:00.670Z,11.40
2019-03-21T04:15:00.698Z,12.40
2019-03-21T04:16:00.638Z,13.20
2019-03-21T04:17:00.629Z,13.90
2019-03-21T04:18:00.618Z,11.30
2019-03-21T04:19:00.616Z,10.90
2019-03-21T04:20:00.598Z,9.80
2019-03-21T04:21:00.638Z,10.40
2019-03-21T04:22:00.592Z,11.70
2019-03-21T04:23:00.570Z,11.60
2019-03-21T04:24:00.557Z,10.30
2019-03-21T04:25:00.590Z,11.20
2019-03-21T04:26:00.533Z,10.50
2019-03-21T04:27:00.570Z,12.70
2019-03-21T04:28:00.520Z,11.40
2019-03-21T04:29:00.497Z,12.90
2019-03-21T04:30:00.495Z,12.60
2019-03-21T04:31:00.478Z,12.40
2019-03-21T04:32:00.516Z,13.80
2019-03-21T04:33:00.457Z,11.60
2019-03-21T04:34:00.485Z,10.70
2019-03-21T04:35:00.431Z,11.50
2019-03-21T04:36:00.423Z,12.30
2019-03-21T04:37:00.411Z,14.10
2019-03-21T04:38:00.405Z,13.40
2019-03-21T04:39:00.445Z,11.30
2019-03-21T04:40:00.471Z,11.80
2019-03-21T04:41:00.369Z,12.70
2019-03-21T04:42:00.356Z,10.30
2019-03-21T04:43:00.346Z,10.90
2019-03-21T04:44:00.380Z,11.30
2019-03-21T04:45:00.346Z,11.90
2019-03-21T04:46:03.769Z,9.80
2019-03-21T04:47:00.300Z,13.80
2019-03-21T04:48:00.291Z,9.10
2019-03-21T04:49:00.329Z,10.00
2019-03-21T04:50:00.354Z,11.10
2019-03-21T04:51:00.307Z,10.40
2019-03-21T04:52:00.262Z,10.30
2019-03-21T04:53:00.236Z,11.20
2019-03-21T04:54:00.236Z,12.30
2019-03-21T04:55:00.412Z,11.10
2019-03-21T04:56:00.203Z,12.10
2019-03-21T04:57:00.240Z,10.50
2019-03-21T04:58:00.192Z,11.40
2019-03-21T04:59:00.175Z,11.50
2019-03-21T05:00:00.572Z,11.40
2019-03-21T05:01:00.149Z,10.90
2019-03-21T05:02:00.140Z,10.70
2019-03-21T05:03:00.167Z,11.00
2019-03-21T05:04:00.119Z,11.40
2019-03-21T05:05:00.115Z,11.50
2019-03-21T05:06:00.098Z,14.90
2019-03-21T05:07:00.085Z,14.10
2019-03-21T05:08:00.080Z,10.90
2019-03-21T05:09:00.103Z,10.60
2019-03-21T05:10:00.053Z,12.50
2019-03-21T05:11:00.042Z,11.10
2019-03-21T05:12:00.031Z,12.80
2019-03-21T05:13:00.022Z,10.50
2019-03-21T05:14:00.014Z,11.70
2019-03-21T05:15:00.051Z,11.00
2019-03-21T05:15:59.989Z,9.90
2019-03-21T05:16:59.977Z,10.30
2019-03-21T05:17:59.966Z,12.80
2019-03-21T05:18:59.958Z,11.00
2019-03-21T05:19:59.948Z,11.50
2019-03-21T05:20:59.974Z,12.80
2019-03-21T05:21:59.972Z,10.80
2019-03-21T05:22:59.912Z,11.70
2019-03-21T05:23:59.941Z,10.40
2019-03-21T05:24:59.900Z,9.20
2019-03-21T05:25:59.927Z,9.70
2019-03-21T05:26:59.913Z,12.40
2019-03-21T05:27:59.859Z,11.00
2019-03-21T05:28:59.846Z,10.40
2019-03-21T05:29:59.860Z,12.10
2019-03-21T05:30:59.883Z,12.00
2019-03-21T05:31:59.819Z,11.00
2019-03-21T05:32:59.801Z,11.30
2019-03-21T05:33:59.792Z,11.80
2019-03-21T05:34:59.781Z,11.50
2019-03-21T05:35:59.775Z,11.30
2019-03-21T05:36:59.806Z,13.20
2019-03-21T05:37:59.824Z,11.80
2019-03-21T05:38:59.741Z,13.10
2019-03-21T05:39:59.738Z,11.80
2019-03-21T05:40:59.717Z,10.10
2019-03-21T05:41:59.713Z,11.70
2019-03-21T05:42:59.706Z,11.20
2019-03-21T05:43:59.730Z,10.00
2019-03-21T05:44:59.672Z,10.30
2019-03-21T05:45:59.668Z,11.10
2019-03-21T05:46:59.654Z,11.60
2019-03-21T05:47:59.648Z,10.10
2019-03-21T05:48:59.631Z,13.30
2019-03-21T05:49:59.659Z,12.10
2019-03-21T05:50:59.615Z,15.70
2019-03-21T05:51:59.597Z,11.90
2019-03-21T05:52:59.589Z,10.90
2019-03-21T05:53:59.577Z,11.30
2019-03-21T05:54:59.610Z,10.40
2019-03-21T05:55:59.574Z,10.70
2019-03-21T05:56:59.543Z,14.30
2019-03-21T05:57:59.576Z,13.00
2019-03-21T05:58:59.531Z,12.60
2019-03-21T05:59:59.512Z,17.60
2019-03-21T06:00:59.546Z,12.80
2019-03-21T06:01:59.513Z,11.90
2019-03-21T06:02:59.482Z,13.80
2019-03-21T06:03:59.593Z,14.90
2019-03-21T06:04:59.472Z,12.20
2019-03-21T06:05:59.515Z,11.10
2019-03-21T06:06:59.462Z,10.10
2019-03-21T06:07:59.448Z,12.20
2019-03-21T06:08:59.491Z,14.40
2019-03-21T06:09:59.433Z,14.50
2019-03-21T06:10:59.414Z,12.00
2019-03-21T06:11:59.392Z,12.30
2019-03-21T06:12:59.382Z,13.10
2019-03-21T06:13:59.364Z,15.40
2019-03-21T06:14:59.401Z,13.30
2019-03-21T06:15:59.352Z,13.40
2019-03-21T06:16:59.420Z,12.70
2019-03-21T06:17:59.331Z,15.30
2019-03-21T06:18:59.409Z,13.90
2019-03-21T06:19:59.316Z,14.10
2019-03-21T06:20:59.298Z,11.80
2019-03-21T06:21:59.276Z,13.70
2019-03-21T06:22:59.338Z,13.10
2019-03-21T06:23:59.301Z,11.80
2019-03-21T06:24:59.265Z,14.50
2019-03-21T06:25:59.332Z,12.90
2019-03-21T06:26:59.239Z,14.50
2019-03-21T06:27:59.210Z,12.10
2019-03-21T06:28:59.255Z,13.90
2019-03-21T06:29:59.251Z,12.60
2019-03-21T06:30:59.230Z,13.40
2019-03-21T06:31:59.180Z,13.60
2019-03-21T06:32:59.205Z,14.80
2019-03-21T06:33:59.147Z,13.20
2019-03-21T06:34:59.155Z,11.30
2019-03-21T06:35:59.200Z,17.20
2019-03-21T06:36:59.178Z,12.30
2019-03-21T06:37:59.116Z,13.10
2019-03-21T06:38:59.126Z,15.10
2019-03-21T06:39:59.091Z,14.40
2019-03-21T06:40:59.114Z,14.20
2019-03-21T06:41:59.062Z,12.20
2019-03-21T06:42:59.341Z,11.80
2019-03-21T06:43:59.049Z,13.60
2019-03-21T06:44:59.029Z,13.80
2019-03-21T06:45:59.059Z,12.70
2019-03-21T06:46:59.044Z,14.50
2019-03-21T06:47:59.017Z,12.70
2019-03-21T06:48:59.088Z,17.00
2019-03-21T06:49:58.984Z,12.70
2019-03-21T06:50:58.986Z,13.40
2019-03-21T06:51:58.972Z,12.30
2019-03-21T06:52:58.951Z,12.80
2019-03-21T06:53:58.930Z,12.70
2019-03-21T06:54:59.973Z,13.10
2019-03-21T06:55:58.911Z,12.00
2019-03-21T06:56:58.915Z,14.70
2019-03-21T06:57:58.914Z,16.10
2019-03-21T06:58:58.885Z,15.80
2019-03-21T06:59:58.948Z,15.10
2019-03-21T07:00:59.157Z,12.00
2019-03-21T07:01:58.909Z,12.80
2019-03-21T07:02:58.873Z,14.60
2019-03-21T07:04:06.998Z,13.60
2019-03-21T07:04:59.811Z,14.00
2019-03-21T07:05:58.815Z,13.30
2019-03-21T07:07:07.599Z,13.90
2019-03-21T07:07:59.919Z,11.20
2019-03-21T07:08:58.767Z,12.60
2019-03-21T07:09:58.759Z,13.90
2019-03-21T07:10:58.810Z,15.60
2019-03-21T07:11:58.789Z,15.70
2019-03-21T07:12:58.778Z,12.10
2019-03-21T07:13:58.792Z,14.30
2019-03-21T07:14:58.755Z,14.90
2019-03-21T07:15:58.709Z,11.80
2019-03-21T07:17:00.607Z,15.30
2019-03-21T07:17:59.594Z,12.70
2019-03-21T07:18:58.662Z,12.70
2019-03-21T07:19:58.677Z,15.50
2019-03-21T07:21:01.006Z,12.90
2019-03-21T07:21:59.612Z,15.00
2019-03-21T07:22:58.694Z,15.80
2019-03-21T07:23:58.688Z,14.60
2019-03-21T07:24:58.657Z,12.50
2019-03-21T07:25:59.539Z,15.60
2019-03-21T07:26:59.139Z,15.30
2019-03-21T07:27:58.578Z,18.40
2019-03-21T07:28:58.683Z,12.80
2019-03-21T07:29:58.573Z,12.60
2019-03-21T07:30:58.550Z,15.80
2019-03-21T07:31:58.610Z,15.30
2019-03-21T07:32:58.570Z,15.70
2019-03-21T07:33:58.504Z,15.60
2019-03-21T07:34:58.530Z,14.40
2019-03-21T07:35:58.496Z,12.60
2019-03-21T07:36:58.487Z,14.50
2019-03-21T07:37:58.549Z,12.80
2019-03-21T07:38:59.054Z,14.80
2019-03-21T07:39:58.450Z,11.90
2019-03-21T07:40:58.436Z,13.40
2019-03-21T07:42:01.012Z,11.40
2019-03-21T07:42:58.419Z,16.00
2019-03-21T07:43:58.485Z,16.90
2019-03-21T07:44:58.390Z,13.50
2019-03-21T07:45:58.413Z,13.60
2019-03-21T07:46:58.383Z,11.40
2019-03-21T07:47:58.403Z,13.30
2019-03-21T07:48:58.358Z,13.90
2019-03-21T07:49:58.435Z,15.60
2019-03-21T07:50:58.349Z,14.40
2019-03-21T07:51:58.317Z,12.70
2019-03-21T07:52:58.448Z,12.00
2019-03-21T07:53:58.299Z,12.30
2019-03-21T07:54:58.369Z,11.80
2019-03-21T07:55:58.272Z,12.60
2019-03-21T07:56:58.361Z,15.80
2019-03-21T07:57:59.491Z,13.60
2019-03-21T07:58:58.254Z,13.90
2019-03-21T07:59:58.238Z,14.30
2019-03-21T08:00:58.271Z,14.80
2019-03-21T08:01:59.106Z,13.00
2019-03-21T08:02:58.212Z,15.10
2019-03-21T08:03:58.240Z,12.80
2019-03-21T08:04:58.226Z,14.70
2019-03-21T08:05:58.173Z,20.40
2019-03-21T08:06:58.213Z,11.90
2019-03-21T08:07:59.048Z,11.10
2019-03-21T08:08:58.613Z,12.70
2019-03-21T08:09:58.112Z,13.90
2019-03-21T08:10:58.189Z,15.20
2019-03-21T08:11:58.127Z,12.80
2019-03-21T08:12:58.094Z,23.80
2019-03-21T08:13:58.146Z,13.70
2019-03-21T08:14:58.216Z,15.20
2019-03-21T08:15:58.048Z,12.50
2019-03-21T08:16:58.163Z,13.70
2019-03-21T08:17:58.540Z,12.90
2019-03-21T08:18:58.544Z,12.70
2019-03-21T08:19:58.119Z,12.90
2019-03-21T08:21:00.047Z,11.70
2019-03-21T08:21:58.002Z,14.00
2019-03-21T08:22:58.118Z,14.10
2019-03-21T08:23:57.976Z,12.40
2019-03-21T08:24:57.964Z,13.90
2019-03-21T08:25:58.038Z,12.80
2019-03-21T08:26:57.942Z,14.70
2019-03-21T08:27:57.919Z,11.70
2019-03-21T08:28:57.919Z,11.50
2019-03-21T08:29:57.958Z,13.30
2019-03-21T08:30:57.890Z,13.00
2019-03-21T08:31:57.893Z,12.70
2019-03-21T08:32:57.852Z,15.40
2019-03-21T08:33:57.847Z,15.20
2019-03-21T08:34:57.913Z,13.00
2019-03-21T08:35:58.122Z,14.60
2019-03-21T08:36:57.825Z,13.70
2019-03-21T08:37:57.798Z,11.40
2019-03-21T08:38:57.802Z,12.70
2019-03-21T08:39:57.828Z,13.90
2019-03-21T08:40:57.787Z,12.30
2019-03-21T08:41:57.757Z,12.30
2019-03-21T08:42:57.759Z,12.00
2019-03-21T08:43:57.950Z,12.70
2019-03-21T08:44:57.795Z,14.30
2019-03-21T08:45:57.741Z,17.60
2019-03-21T08:46:57.703Z,13.00
2019-03-21T08:47:58.544Z,15.90
2019-03-21T08:48:57.690Z,12.40
2019-03-21T08:49:57.729Z,12.10
2019-03-21T08:51:07.829Z,10.50
2019-03-21T08:51:58.710Z,13.10
2019-03-21T08:52:57.663Z,18.40
2019-03-21T08:53:57.657Z,13.90
2019-03-21T08:54:57.628Z,11.50
2019-03-21T08:55:58.085Z,12.50
2019-03-21T08:56:57.641Z,10.50
2019-03-21T08:57:57.631Z,14.00
2019-03-21T08:58:57.570Z,11.70
2019-03-21T08:59:57.615Z,11.20
2019-03-21T09:00:57.642Z,16.50
2019-03-21T09:01:57.535Z,13.60
2019-03-21T09:02:57.523Z,13.80
2019-03-21T09:03:57.571Z,12.30
2019-03-21T09:04:59.683Z,13.20
2019-03-21T09:05:57.492Z,15.40
2019-03-21T09:06:57.487Z,13.50
2019-03-21T09:07:57.487Z,14.40
2019-03-21T09:08:57.465Z,12.60
2019-03-21T09:09:57.484Z,16.40
2019-03-21T09:10:57.512Z,11.40
2019-03-21T09:11:57.530Z,11.90
2019-03-21T09:12:57.458Z,14.40
2019-03-21T09:13:57.422Z,15.20
2019-03-21T09:14:57.483Z,10.40
2019-03-21T09:15:57.481Z,15.60
2019-03-21T09:16:57.369Z,12.50
2019-03-21T09:17:57.425Z,10.90
2019-03-21T09:18:57.357Z,16.10
2019-03-21T09:19:57.361Z,14.30
2019-03-21T09:20:58.057Z,12.30
2019-03-21T09:21:57.365Z,11.80
2019-03-21T09:22:57.308Z,13.30
2019-03-21T09:23:57.346Z,12.80
2019-03-21T09:24:57.300Z,13.00
2019-03-21T09:25:57.260Z,13.00
2019-03-21T09:26:57.278Z,11.80
2019-03-21T09:28:02.574Z,12.60
2019-03-21T09:28:58.287Z,11.00
2019-03-21T09:29:57.240Z,13.00
2019-03-21T09:30:57.219Z,15.70
2019-03-21T09:31:57.212Z,13.50
2019-03-21T09:32:57.187Z,14.70
2019-03-21T09:33:57.284Z,11.50
2019-03-21T09:34:57.210Z,12.70
2019-03-21T09:35:57.150Z,10.90
2019-03-21T09:36:57.171Z,12.10
2019-03-21T09:37:57.174Z,13.60
2019-03-21T09:38:57.119Z,13.80
2019-03-21T09:39:57.191Z,12.30
2019-03-21T09:40:57.192Z,17.60
2019-03-21T09:41:57.113Z,11.30
2019-03-21T09:42:57.080Z,14.70
2019-03-21T09:43:57.090Z,10.70
2019-03-21T09:44:57.083Z,13.40
2019-03-21T09:45:57.089Z,12.90
2019-03-21T09:46:57.035Z,12.80
2019-03-21T09:47:57.028Z,16.80
2019-03-21T09:48:57.017Z,12.80
2019-03-21T09:49:59.226Z,13.10
2019-03-21T09:50:57.129Z,11.70
2019-03-21T09:51:56.991Z,10.90
2019-03-21T09:52:56.967Z,13.70
2019-03-21T09:53:56.980Z,12.90
2019-03-21T09:54:56.937Z,13.30
2019-03-21T09:55:57.167Z,10.70
2019-03-21T09:56:56.981Z,12.30
2019-03-21T09:57:56.953Z,10.30
2019-03-21T09:58:56.944Z,13.50
2019-03-21T09:59:56.894Z,11.60
2019-03-21T10:00:56.922Z,9.70
2019-03-21T10:01:56.883Z,12.10
2019-03-21T10:02:56.933Z,10.60
2019-03-21T10:03:56.840Z,11.60
2019-03-21T10:04:56.823Z,9.20
2019-03-21T10:05:56.817Z,11.50
2019-03-21T10:06:56.876Z,11.50
2019-03-21T10:07:59.348Z,9.50
2019-03-21T10:08:56.785Z,10.70
2019-03-21T10:09:56.780Z,10.60
2019-03-21T10:10:56.837Z,11.10
2019-03-21T10:11:56.779Z,9.50
2019-03-21T10:12:56.743Z,12.00
2019-03-21T10:13:56.785Z,10.50
2019-03-21T10:14:56.732Z,8.20
2019-03-21T10:15:56.712Z,9.90
2019-03-21T10:16:56.723Z,8.60
2019-03-21T10:17:56.705Z,10.40
2019-03-21T10:18:56.668Z,11.30
2019-03-21T10:19:56.702Z,11.10
2019-03-21T10:20:56.665Z,7.70
2019-03-21T10:21:56.652Z,7.20
2019-03-21T10:22:56.656Z,8.10
2019-03-21T10:23:56.632Z,7.80
2019-03-21T10:24:56.612Z,10.60
2019-03-21T10:25:57.130Z,8.80
2019-03-21T10:26:56.579Z,9.50
2019-03-21T10:27:57.536Z,9.20
2019-03-21T10:28:56.614Z,9.10
2019-03-21T10:29:56.564Z,8.80
2019-03-21T10:30:57.321Z,9.00
2019-03-21T10:31:56.526Z,7.50
2019-03-21T10:32:56.523Z,11.10
2019-03-21T10:33:56.508Z,8.20
2019-03-21T10:34:56.521Z,6.40
2019-03-21T10:35:56.543Z,6.40
2019-03-21T10:36:56.489Z,8.20
2019-03-21T10:37:56.484Z,10.20
2019-03-21T10:38:56.449Z,7.00
2019-03-21T10:39:56.497Z,5.60
2019-03-21T10:40:56.536Z,9.20
2019-03-21T10:41:56.470Z,9.20
2019-03-21T10:42:56.433Z,7.70
2019-03-21T10:43:56.420Z,7.10
2019-03-21T10:44:56.482Z,8.60
2019-03-21T10:45:57.030Z,6.30
2019-03-21T10:46:56.410Z,8.10
2019-03-21T10:47:56.354Z,8.70
2019-03-21T10:48:56.358Z,6.70
2019-03-21T10:49:56.378Z,7.90
2019-03-21T10:50:56.338Z,10.00
2019-03-21T10:51:56.576Z,10.70
2019-03-21T10:52:56.339Z,6.80
2019-03-21T10:53:56.316Z,6.40
2019-03-21T10:54:56.371Z,6.60
2019-03-21T10:55:56.344Z,7.10
2019-03-21T10:56:56.423Z,6.90
2019-03-21T10:57:56.367Z,7.30
2019-03-21T10:58:56.347Z,5.60
2019-03-21T10:59:56.221Z,7.40
2019-03-21T11:00:56.233Z,8.70
2019-03-21T11:02:06.840Z,6.90
2019-03-21T11:02:57.186Z,13.50
2019-03-21T11:03:56.228Z,7.70
2019-03-21T11:04:56.194Z,7.70
2019-03-21T11:05:56.157Z,7.20
2019-03-21T11:06:56.145Z,6.40
2019-03-21T11:07:56.191Z,6.90
2019-03-21T11:08:56.184Z,7.80
2019-03-21T11:09:56.116Z,6.70
2019-03-21T11:10:56.158Z,8.40
2019-03-21T11:11:56.141Z,7.20
2019-03-21T11:12:56.122Z,8.00
2019-03-21T11:13:56.126Z,6.70
2019-03-21T11:14:56.080Z,7.80
2019-03-21T11:15:56.129Z,8.50
2019-03-21T11:16:56.050Z,9.30
2019-03-21T11:17:56.042Z,6.20
2019-03-21T11:18:56.017Z,7.40
2019-03-21T11:19:56.055Z,6.60
2019-03-21T11:20:55.992Z,7.30
2019-03-21T11:22:05.750Z,7.40
2019-03-21T11:22:56.974Z,6.80
2019-03-21T11:23:55.958Z,10.00
2019-03-21T11:24:55.948Z,8.50
2019-03-21T11:25:56.014Z,6.20
2019-03-21T11:26:55.919Z,7.40
2019-03-21T11:27:55.915Z,8.10
2019-03-21T11:28:55.909Z,8.40
2019-03-21T11:29:55.931Z,7.70
2019-03-21T11:30:55.876Z,9.50
2019-03-21T11:31:55.862Z,8.70
2019-03-21T11:32:55.856Z,7.00
2019-03-21T11:33:55.904Z,9.20
2019-03-21T11:34:56.437Z,11.70
2019-03-21T11:35:55.839Z,7.60
2019-03-21T11:36:55.876Z,7.00
2019-03-21T11:37:55.804Z,6.80
2019-03-21T11:38:55.803Z,6.60
2019-03-21T11:39:55.829Z,9.20
2019-03-21T11:40:55.830Z,8.90
2019-03-21T11:41:55.778Z,9.80
2019-03-21T11:42:55.816Z,9.00
2019-03-21T11:43:55.757Z,8.80
2019-03-21T11:44:55.728Z,9.60
2019-03-21T11:45:56.122Z,7.00
2019-03-21T11:46:55.705Z,11.50
2019-03-21T11:47:55.716Z,9.60
2019-03-21T11:48:56.545Z,9.30
2019-03-21T11:49:55.698Z,7.70
2019-03-21T11:50:55.666Z,7.80
2019-03-21T11:51:55.664Z,12.00
2019-03-21T11:52:55.677Z,9.90
2019-03-21T11:53:55.694Z,6.30
2019-03-21T11:54:56.539Z,8.20
2019-03-21T11:55:55.656Z,13.80
2019-03-21T11:56:55.597Z,12.20
2019-03-21T11:57:55.581Z,9.50
2019-03-21T11:58:55.567Z,9.40
2019-03-21T11:59:55.628Z,10.00
2019-03-21T12:00:55.597Z,11.60
2019-03-21T12:01:55.535Z,8.90
2019-03-21T12:02:55.528Z,8.30
2019-03-21T12:03:55.631Z,9.20
2019-03-21T12:04:55.509Z,11.40
2019-03-21T12:05:55.607Z,11.70
2019-03-21T12:06:55.513Z,12.40
2019-03-21T12:07:55.471Z,8.70
2019-03-21T12:08:55.476Z,7.20
2019-03-21T12:09:55.522Z,7.20
2019-03-21T12:10:55.483Z,10.00
2019-03-21T12:11:55.461Z,9.40
2019-03-21T12:12:55.480Z,11.60
2019-03-21T12:13:55.408Z,9.80
2019-03-21T12:14:55.445Z,10.50
2019-03-21T12:15:55.420Z,8.40
2019-03-21T12:16:55.382Z,13.00
2019-03-21T12:17:55.412Z,8.80
2019-03-21T12:18:55.397Z,9.60
2019-03-21T12:19:55.404Z,9.10
2019-03-21T12:20:55.378Z,8.70
2019-03-21T12:21:55.316Z,10.10
2019-03-21T12:22:55.319Z,10.90
2019-03-21T12:23:55.545Z,9.10
2019-03-21T12:24:55.333Z,9.10
2019-03-21T12:25:55.380Z,7.90
2019-03-21T12:26:55.317Z,7.20
2019-03-21T12:27:55.277Z,10.70
2019-03-21T12:28:55.239Z,11.30
2019-03-21T12:29:55.248Z,7.60
2019-03-21T12:30:55.210Z,10.70
2019-03-21T12:31:55.250Z,8.00
2019-03-21T12:32:55.192Z,10.00
2019-03-21T12:33:55.301Z,12.20
2019-03-21T12:34:56.064Z,10.50
2019-03-21T12:35:55.165Z,9.60
2019-03-21T12:36:55.554Z,12.20
2019-03-21T12:37:55.137Z,12.90
2019-03-21T12:38:55.184Z,10.10
2019-03-21T12:39:55.172Z,8.10
2019-03-21T12:40:55.108Z,8.40
2019-03-21T12:41:55.108Z,12.00
2019-03-21T12:42:55.096Z,12.30
2019-03-21T12:43:55.070Z,10.00
2019-03-21T12:44:55.549Z,11.50
2019-03-21T12:45:55.310Z,9.80
2019-03-21T12:46:55.045Z,9.00
2019-03-21T12:47:55.045Z,9.10
2019-03-21T12:48:55.027Z,8.70
2019-03-21T12:49:55.055Z,10.20
2019-03-21T12:50:55.054Z,8.70
2019-03-21T12:51:55.057Z,9.50
2019-03-21T12:52:55.007Z,8.70
2019-03-21T12:53:54.995Z,9.30
2019-03-21T12:54:55.008Z,8.70
2019-03-21T12:55:54.952Z,9.10
2019-03-21T12:56:55.000Z,9.50
2019-03-21T12:57:54.923Z,8.40
2019-03-21T12:58:54.961Z,9.00
2019-03-21T12:59:54.903Z,9.70
2019-03-21T13:00:54.889Z,8.60
2019-03-21T13:01:54.891Z,9.10
2019-03-21T13:02:54.879Z,11.40